This is the latest recevied weather packets stored in our database for station/object N4QB-13. If no packets are shown the sender has not sent any weather packets the latest 1 day(s).
| Time | Temp. | Humidity | Pressure | Rain* | Wind** | Luminosity | Snow |
|---|---|---|---|---|---|---|---|
| 1778452559 | 28.33° C | 72% | 1012.9 hPa | 0 mm | - | 54 W/m² | - |
| 1778450738 | 28.89° C | 71% | 1012.9 hPa | 0 mm | - | 136 W/m² | - |
| 1778449526 | 29.44° C | 71% | 1013 hPa | 0 mm | - | 301 W/m² | - |
| 1778448920 | 29.44° C | 69% | 1013.1 hPa | 0 mm | - | 83 W/m² | - |
| 1778447103 | 29.44° C | 70% | 1012.9 hPa | 0 mm | - | 261 W/m² | - |
| 1778446193 | 28.89° C | 70% | 1013 hPa | 0 mm | - | 60 W/m² | - |
| 1778444674 | 30.56° C | 65% | 1013.3 hPa | 0 mm | - | 446 W/m² | - |
| 1778429037 | 23.89° C | 94% | 1014.9 hPa | 0 mm | - | 91 W/m² | - |
| 1778428433 | 23.33° C | 95% | 1015.4 hPa | 0 mm | - | 119 W/m² | - |
| 1778426912 | 22.78° C | 96% | 1015.4 hPa | 0 mm | - | 129 W/m² | - |
| 1778426306 | 22.78° C | 96% | 1015.3 hPa | 0 mm | - | 98 W/m² | - |
| 1778426004 | 22.78° C | 97% | 1015.3 hPa | 0 mm | - | 93 W/m² | - |
| 1778424182 | 22.22° C | 98% | 1015.3 hPa | 0 mm | - | 102 W/m² | - |
| 1778422668 | 21.11° C | 99% | 1015.2 hPa | 0 mm | - | 111 W/m² | - |
| 1778373893 | 18.89° C | 99% | 1010.9 hPa | 4.83 mm | - | 0 W/m² | - |
| 1778373592 | 18.89° C | 99% | 1011 hPa | 3.05 mm | - | 0 W/m² | - |
| 1778373288 | 18.89° C | 99% | 1011.2 hPa | 1.78 mm | - | 0 W/m² | - |
| 1778372983 | 18.89° C | 99% | 1011.1 hPa | 1.27 mm | - | 0 W/m² | - |
| 1778372376 | 18.89° C | 99% | 1011 hPa | 0 mm | - | 0 W/m² | - |
| 1778372073 | 18.89° C | 99% | 1011.1 hPa | 1.78 mm | - | 0 W/m² | - |
| 1778370861 | 18.89° C | 99% | 1010.8 hPa | 1.27 mm | - | 3 W/m² | - |
* Rain latest hour (hover to see other rain measurements)
** Current wind speed in m/s (hover to see current wind gust speed)